Time;durP1;ratioP1;P1;durP2;ratioP2;P2;SDS_P1;SDS_P2;PMS_P1;PMS_P2;Temp;Humidity;BMP_temperature;BMP_pressure;BME280_temperature;BME280_humidity;BME280_pressure;Samples;Min_cycle;Max_cycle;Signal;HPM_P1;HPM_P2
2024/01/21 00:00:52;;;;;;;0.20;0.20;;;;;;;-0.10;84.91;98094.78;5008224;28;20057;-58
2024/01/21 00:03:19;;;;;;;0.20;0.20;;;;;;;-0.10;85.25;98094.78;5007964;28;20053;-59
2024/01/21 00:05:46;;;;;;;0.20;0.20;;;;;;;-0.05;85.15;98089.34;5008016;28;20054;-58
2024/01/21 00:08:13;;;;;;;0.20;0.20;;;;;;;0.01;85.26;98096.41;5007605;28;20092;-58
2024/01/21 00:10:39;;;;;;;0.20;0.20;;;;;;;-0.18;85.71;98098.91;5006455;28;20054;-59
2024/01/21 00:13:06;;;;;;;0.20;0.20;;;;;;;-0.70;85.76;98024.16;5006413;28;20703;-57
2024/01/21 00:15:33;;;;;;;0.20;0.20;;;;;;;-0.06;85.40;98093.97;5007970;28;20056;-58
2024/01/21 00:18:01;;;;;;;0.20;0.20;;;;;;;0.02;85.03;98098.00;5006264;28;20080;-58
2024/01/21 00:20:30;;;;;;;0.20;0.20;;;;;;;-0.08;85.12;98098.06;5007721;28;20050;-58
2024/01/21 00:22:57;;;;;;;0.20;0.20;;;;;;;-0.25;86.52;98124.75;5007535;28;20488;-58
2024/01/21 00:25:24;;;;;;;0.20;0.20;;;;;;;0.02;87.14;98111.63;5007304;28;20102;-58
2024/01/21 00:27:51;;;;;;;0.20;0.20;;;;;;;-0.04;87.21;98104.56;5007729;28;20515;-57
2024/01/21 00:30:17;;;;;;;0.20;0.20;;;;;;;-0.21;86.72;98055.06;5007644;28;20042;-58
2024/01/21 00:32:44;;;;;;;0.20;0.20;;;;;;;-0.15;84.53;98070.28;5007469;28;20053;-58
2024/01/21 00:35:11;;;;;;;0.20;0.20;;;;;;;-0.05;84.27;98108.41;5007820;28;20045;-57
2024/01/21 00:37:38;;;;;;;0.20;0.20;;;;;;;-0.01;85.04;98113.00;5007958;28;20417;-58
2024/01/21 00:40:08;;;;;;;0.20;0.20;;;;;;;-0.80;86.43;97976.03;5007685;28;20374;-58
2024/01/21 00:42:35;;;;;;;0.20;0.20;;;;;;;0.09;86.29;98114.91;5007072;28;20049;-59
2024/01/21 00:45:02;;;;;;;0.20;0.20;;;;;;;-2.06;85.76;97771.63;5006992;28;20140;-57
2024/01/21 00:47:30;;;;;;;0.20;0.20;;;;;;;0.13;86.92;98115.94;5007371;28;20057;-57
2024/01/21 00:49:57;;;;;;;0.20;0.20;;;;;;;0.20;85.70;98119.22;5005934;28;20053;-57
2024/01/21 00:52:24;;;;;;;0.20;0.20;;;;;;;-0.30;84.71;98051.31;5014854;28;20129;-57
2024/01/21 00:54:52;;;;;;;0.20;0.20;;;;;;;0.25;85.28;98124.66;5026974;28;20060;-57
2024/01/21 00:57:20;;;;;;;0.20;0.20;;;;;;;-0.30;84.84;98034.97;5026713;28;20049;-57
2024/01/21 00:59:47;;;;;;;0.20;0.20;;;;;;;0.30;85.89;98121.88;5027224;28;20054;-58
2024/01/21 01:02:13;;;;;;;0.20;0.20;;;;;;;0.13;85.00;98099.59;5026870;28;20056;-58
2024/01/21 01:04:40;;;;;;;0.20;0.20;;;;;;;0.20;86.15;98121.94;5026719;28;20055;-58
2024/01/21 01:07:07;;;;;;;0.20;0.20;;;;;;;-0.12;86.08;98080.63;5026737;28;20138;-57
2024/01/21 01:09:36;;;;;;;0.20;0.20;;;;;;;0.21;85.65;98120.84;5024639;28;20440;-57
2024/01/21 01:12:03;;;;;;;0.20;0.20;;;;;;;-0.18;86.01;98068.13;5026227;28;20084;-58
2024/01/21 01:14:30;;;;;;;0.20;0.20;;;;;;;0.09;87.31;98133.97;5026469;28;20057;-57
2024/01/21 01:16:58;;;;;;;0.20;0.20;;;;;;;0.28;87.43;98124.09;5026329;28;20054;-57
2024/01/21 01:19:25;;;;;;;0.20;0.20;;;;;;;0.23;86.52;98110.47;5024697;28;20578;-57
2024/01/21 01:21:52;;;;;;;0.20;0.20;;;;;;;0.16;86.31;98137.19;5026159;28;20057;-58
2024/01/21 01:24:19;;;;;;;0.20;0.20;;;;;;;-0.46;87.07;98053.22;5026306;28;20894;-57
2024/01/21 01:26:46;;;;;;;0.20;0.20;;;;;;;-0.03;87.12;98106.19;5026216;28;20080;-56
2024/01/21 01:29:13;;;;;;;0.20;0.20;;;;;;;0.18;86.33;98121.41;5025682;28;20055;-58
2024/01/21 01:31:40;;;;;;;0.20;0.20;;;;;;;0.05;87.16;98124.69;5026011;28;20531;-58
2024/01/21 01:34:07;;;;;;;0.20;0.20;;;;;;;-0.18;88.49;98092.63;5026212;28;20049;-58
2024/01/21 01:36:34;;;;;;;0.20;0.20;;;;;;;-0.07;87.92;98116.84;5025858;28;20144;-57
2024/01/21 01:39:01;;;;;;;0.20;0.20;;;;;;;0.06;87.15;98118.16;5024769;28;20076;-57
2024/01/21 01:41:27;;;;;;;0.20;0.20;;;;;;;0.26;84.73;98120.00;5024328;28;20102;-57
2024/01/21 01:43:54;;;;;;;0.20;0.20;;;;;;;0.27;83.39;98122.44;5025516;28;20508;-57
2024/01/21 01:46:22;;;;;;;0.20;0.20;;;;;;;-0.23;83.74;98079.03;5025663;28;20148;-57
2024/01/21 01:48:49;;;;;;;0.20;0.20;;;;;;;0.03;83.88;98121.44;5025805;28;20049;-58
2024/01/21 01:51:16;;;;;;;0.20;0.20;;;;;;;0.15;83.94;98134.75;5025576;28;20057;-58
2024/01/21 01:53:44;;;;;;;0.20;0.20;;;;;;;-0.11;83.52;98112.19;5007733;28;20133;-56
2024/01/21 01:56:11;;;;;;;0.20;0.20;;;;;;;0.04;83.36;98147.59;5006218;28;20444;-57
2024/01/21 01:58:40;;;;;;;0.20;0.20;;;;;;;-0.26;84.31;98147.63;5005622;28;20065;-58
2024/01/21 02:01:07;;;;;;;0.20;0.20;;;;;;;-0.71;85.01;98090.53;5005528;28;20061;-59
2024/01/21 02:03:34;;;;;;;0.20;0.20;;;;;;;-0.37;84.45;98132.41;5005773;28;20049;-57
2024/01/21 02:06:01;;;;;;;0.20;0.20;;;;;;;-0.60;86.24;98150.09;5004149;28;20531;-58
2024/01/21 02:08:28;;;;;;;0.17;0.17;;;;;;;-0.58;88.67;98147.09;5005658;28;20681;-57
2024/01/21 02:10:54;;;;;;;0.20;0.20;;;;;;;-0.46;88.46;98144.94;5005708;28;20448;-56
2024/01/21 02:13:21;;;;;;;0.20;0.20;;;;;;;-0.65;87.06;98075.84;5004228;28;20052;-57
2024/01/21 02:15:48;;;;;;;0.20;0.20;;;;;;;-0.36;87.17;98147.63;5004047;28;20503;-59
2024/01/21 02:18:15;;;;;;;0.20;0.20;;;;;;;-0.50;87.26;98143.84;5005642;28;20053;-57
2024/01/21 02:20:42;;;;;;;0.10;0.10;;;;;;;-0.40;86.52;98143.84;5005833;28;20157;-58
2024/01/21 02:23:10;;;;;;;0.20;0.20;;;;;;;-0.62;85.86;98102.50;5004523;28;20053;-58
2024/01/21 02:25:37;;;;;;;0.20;0.20;;;;;;;-0.21;85.35;98150.34;5004882;28;20058;-57
2024/01/21 02:28:04;;;;;;;0.20;0.20;;;;;;;-1.09;84.87;98009.50;5003955;28;20054;-57
2024/01/21 02:30:31;;;;;;;0.20;0.20;;;;;;;-0.24;85.94;98148.19;5005320;28;20081;-58
2024/01/21 02:32:57;;;;;;;0.20;0.20;;;;;;;-0.73;85.90;98090.00;5003856;28;20054;-57
2024/01/21 02:35:24;;;;;;;0.20;0.20;;;;;;;-0.94;87.19;98039.41;5005313;28;20505;-58
2024/01/21 02:37:51;;;;;;;0.20;0.20;;;;;;;-0.18;87.67;98141.63;5004670;28;20053;-58
2024/01/21 02:40:18;;;;;;;0.20;0.20;;;;;;;-0.21;86.68;98148.47;5005162;28;20399;-57
2024/01/21 02:42:45;;;;;;;0.20;0.20;;;;;;;-2.32;86.96;97813.38;5003541;28;20308;-57
2024/01/21 02:45:11;;;;;;;0.20;0.20;;;;;;;-0.24;87.32;98151.69;5004941;28;20558;-58
2024/01/21 02:47:38;;;;;;;0.20;0.20;;;;;;;-0.52;87.63;98091.63;5003543;28;20065;-59
2024/01/21 02:50:06;;;;;;;0.20;0.20;;;;;;;-0.60;86.47;98184.66;5004584;28;20096;-57
2024/01/21 02:52:32;;;;;;;0.20;0.20;;;;;;;-0.38;87.57;98152.56;5011799;28;20080;-60
2024/01/21 02:54:59;;;;;;;0.20;0.20;;;;;;;-0.52;86.77;98140.59;5025067;28;20081;-58
2024/01/21 02:57:26;;;;;;;0.20;0.20;;;;;;;-1.00;87.83;98078.56;5024835;28;20139;-57
2024/01/21 02:59:53;;;;;;;0.20;0.20;;;;;;;-0.44;88.41;98156.34;5024483;28;20547;-59
2024/01/21 03:02:19;;;;;;;0.20;0.20;;;;;;;-0.45;87.91;98162.88;5008363;28;20128;-58
2024/01/21 03:04:46;;;;;;;0.20;0.20;;;;;;;-0.47;87.77;98156.88;5023111;28;20088;-58
2024/01/21 03:07:14;;;;;;;0.20;0.20;;;;;;;-0.89;87.62;98080.19;5024284;28;20512;-59
2024/01/21 03:09:40;;;;;;;0.20;0.20;;;;;;;-0.47;87.74;98159.63;5023060;28;20050;-59
2024/01/21 03:12:07;;;;;;;0.20;0.20;;;;;;;-0.33;87.14;98158.78;5024306;28;20070;-60
2024/01/21 03:14:34;;;;;;;0.20;0.20;;;;;;;-0.70;86.71;98111.19;5024157;28;20049;-57
2024/01/21 03:17:03;;;;;;;0.20;0.20;;;;;;;-0.48;85.96;98164.25;5022749;28;20475;-58
2024/01/21 03:19:30;;;;;;;0.20;0.20;;;;;;;-0.43;85.27;98171.59;5024070;28;20111;-57
2024/01/21 03:21:57;;;;;;;0.20;0.20;;;;;;;-0.52;85.50;98179.47;5024223;28;20053;-58
2024/01/21 03:24:24;;;;;;;0.20;0.20;;;;;;;-0.51;86.58;98169.44;5024162;28;20053;-58
2024/01/21 03:26:51;;;;;;;0.20;0.20;;;;;;;-0.67;87.15;98159.63;5024203;28;20057;-57
2024/01/21 03:29:18;;;;;;;0.20;0.20;;;;;;;-0.48;86.87;98175.16;5024020;28;20049;-57
2024/01/21 03:31:44;;;;;;;0.20;0.20;;;;;;;-0.52;86.25;98168.59;5022523;28;20053;-57
2024/01/21 03:34:11;;;;;;;0.20;0.20;;;;;;;-0.71;86.58;98151.19;5023858;28;20068;-58
2024/01/21 03:36:39;;;;;;;0.20;0.20;;;;;;;-0.91;87.50;98139.47;5022987;28;20487;-60
2024/01/21 03:39:06;;;;;;;0.20;0.20;;;;;;;-1.05;87.84;98114.72;5022669;28;20513;-58
2024/01/21 03:41:33;;;;;;;0.20;0.20;;;;;;;-0.80;88.32;98168.31;5023815;28;20057;-57
2024/01/21 03:43:59;;;;;;;0.20;0.20;;;;;;;-0.78;87.52;98168.84;5022719;28;20115;-56
2024/01/21 03:46:26;;;;;;;0.20;0.20;;;;;;;-1.20;87.96;98100.28;5023594;28;20053;-57
2024/01/21 03:48:53;;;;;;;0.20;0.20;;;;;;;-0.93;88.27;98166.13;5023550;28;20053;-57
2024/01/21 03:51:20;;;;;;;0.20;0.20;;;;;;;-0.92;87.19;98173.19;5023912;28;20208;-56
2024/01/21 03:53:46;;;;;;;0.20;0.20;;;;;;;-1.04;88.24;98175.34;5018781;28;20054;-57
2024/01/21 03:56:18;;;;;;;0.20;0.20;;;;;;;-1.13;88.01;98164.19;5003683;28;20053;-59
2024/01/21 03:58:45;;;;;;;0.20;0.20;;;;;;;-1.15;88.41;98168.22;5003986;28;20054;-58
2024/01/21 04:01:12;;;;;;;0.20;0.20;;;;;;;-1.20;88.43;98176.41;5004183;28;20520;-57
2024/01/21 04:03:39;;;;;;;0.20;0.20;;;;;;;-1.32;88.33;98154.88;5004168;28;20426;-57
2024/01/21 04:06:06;;;;;;;0.20;0.20;;;;;;;-1.24;88.20;98186.16;5004387;28;20054;-58
2024/01/21 04:08:33;;;;;;;0.10;0.10;;;;;;;-1.38;88.02;98191.28;5002512;28;20531;-57
2024/01/21 04:11:00;;;;;;;0.20;0.20;;;;;;;-1.65;89.27;98158.84;5002693;28;20459;-57
2024/01/21 04:13:27;;;;;;;0.20;0.20;;;;;;;-1.41;88.98;98199.13;5002895;28;20071;-56
2024/01/21 04:15:54;;;;;;;0.20;0.20;;;;;;;-1.99;88.64;98114.13;5004076;28;20054;-56
2024/01/21 04:18:20;;;;;;;0.20;0.20;;;;;;;-1.42;87.21;98200.22;5002612;28;20089;-57
2024/01/21 04:20:47;;;;;;;0.20;0.20;;;;;;;-1.54;86.29;98189.56;5003809;28;20089;-57
2024/01/21 04:23:14;;;;;;;0.20;0.20;;;;;;;-1.55;86.55;98190.66;5004005;28;20084;-57
2024/01/21 04:25:41;;;;;;;0.20;0.20;;;;;;;-1.72;86.70;98196.28;5003601;28;20583;-58
2024/01/21 04:28:07;;;;;;;0.20;0.20;;;;;;;-1.74;86.76;98193.00;5003944;28;20065;-57
2024/01/21 04:30:35;;;;;;;0.20;0.20;;;;;;;-1.75;85.99;98196.81;5003414;28;20436;-57
2024/01/21 04:33:02;;;;;;;0.10;0.10;;;;;;;-1.93;85.77;98210.81;5003638;28;20046;-59
2024/01/21 04:35:30;;;;;;;0.20;0.20;;;;;;;-2.01;86.14;98216.72;5002445;28;20080;-60
2024/01/21 04:37:57;;;;;;;0.20;0.20;;;;;;;-2.12;86.67;98223.16;5004009;28;20053;-57
2024/01/21 04:40:24;;;;;;;0.20;0.20;;;;;;;-2.19;86.96;98222.59;5004042;28;20352;-57
2024/01/21 04:42:51;;;;;;;0.15;0.15;;;;;;;-2.33;88.17;98218.69;5003535;28;20594;-57
2024/01/21 04:45:19;;;;;;;0.20;0.20;;;;;;;-2.74;88.60;98180.63;5004763;28;20049;-58
2024/01/21 04:47:46;;;;;;;0.20;0.20;;;;;;;-2.25;88.02;98226.34;5007295;28;20484;-57
2024/01/21 04:50:12;;;;;;;0.20;0.20;;;;;;;-2.65;87.09;98185.31;5007255;28;20053;-57
2024/01/21 04:52:39;;;;;;;0.20;0.20;;;;;;;-2.41;86.30;98235.44;5007130;28;20054;-57
2024/01/21 04:55:06;;;;;;;0.20;0.20;;;;;;;-3.46;86.92;98074.53;5005410;28;20053;-57
2024/01/21 04:57:33;;;;;;;0.20;0.20;;;;;;;-2.70;87.21;98228.66;5006944;28;20509;-58
2024/01/21 05:00:00;;;;;;;0.20;0.20;;;;;;;-2.69;87.61;98238.44;5005462;28;20914;-57
2024/01/21 05:02:27;;;;;;;0.20;0.20;;;;;;;-2.91;87.34;98215.97;5006902;28;20125;-57
2024/01/21 05:04:54;;;;;;;0.10;0.10;;;;;;;-3.43;88.13;98141.75;5006952;28;20070;-58
2024/01/21 05:07:20;;;;;;;0.17;0.17;;;;;;;-3.17;89.18;98181.56;5006648;28;20540;-57
2024/01/21 05:09:47;;;;;;;0.20;0.20;;;;;;;-2.65;88.88;98244.97;5007012;28;20057;-57
2024/01/21 05:12:14;;;;;;;0.20;0.20;;;;;;;-2.75;88.82;98239.44;5005528;28;20053;-58
2024/01/21 05:14:41;;;;;;;0.20;0.20;;;;;;;-2.76;86.89;98243.22;5007161;28;20054;-57
2024/01/21 05:17:08;;;;;;;0.10;0.10;;;;;;;-3.62;87.08;98124.19;5006492;28;20057;-57
2024/01/21 05:19:34;;;;;;;0.17;0.17;;;;;;;-2.89;87.70;98262.59;5005053;28;20505;-56
2024/01/21 05:22:02;;;;;;;0.20;0.20;;;;;;;-2.89;88.04;98275.34;5006292;28;20056;-56
2024/01/21 05:24:29;;;;;;;0.13;0.13;;;;;;;-3.07;88.37;98257.53;5006505;28;20061;-57
2024/01/21 05:26:56;;;;;;;0.10;0.10;;;;;;;-3.13;88.49;98253.94;5006484;28;20150;-56
2024/01/21 05:29:22;;;;;;;0.20;0.20;;;;;;;-3.22;88.96;98244.63;5006369;28;20321;-56
2024/01/21 05:31:49;;;;;;;0.20;0.20;;;;;;;-3.25;88.94;98245.13;5006546;28;20048;-57
2024/01/21 05:34:16;;;;;;;0.13;0.13;;;;;;;-3.82;88.72;98175.34;5006181;28;20046;-59
2024/01/21 05:36:42;;;;;;;0.20;0.20;;;;;;;-3.57;88.45;98202.75;4995840;28;20073;-57
2024/01/21 05:39:10;;;;;;;0.10;0.10;;;;;;;-3.23;87.95;98250.31;5004610;28;20061;-57
2024/01/21 05:41:37;;;;;;;0.10;0.10;;;;;;;-3.34;87.89;98256.66;5006441;28;20133;-58
2024/01/21 05:44:04;;;;;;;0.17;0.17;;;;;;;-3.67;87.12;98208.06;5005990;28;20060;-57
2024/01/21 05:46:30;;;;;;;0.10;0.10;;;;;;;-3.21;85.81;98246.25;5005752;28;20054;-57
2024/01/21 05:48:57;;;;;;;0.10;0.10;;;;;;;-3.92;85.79;98172.53;5004893;28;20203;-57
2024/01/21 05:51:24;;;;;;;0.10;0.10;;;;;;;-3.48;84.54;98271.66;5005812;28;20053;-57
2024/01/21 05:53:51;;;;;;;0.10;0.10;;;;;;;-4.37;84.29;98142.13;5005909;28;20140;-57
2024/01/21 05:56:18;;;;;;;0.20;0.20;;;;;;;-3.68;83.43;98282.19;5005538;28;20092;-58
2024/01/21 05:58:46;;;;;;;0.20;0.20;;;;;;;-3.82;83.37;98280.91;5004534;28;20104;-57
2024/01/21 06:01:12;;;;;;;0.10;0.10;;;;;;;-4.38;83.12;98229.75;5006212;28;20144;-56
2024/01/21 06:03:39;;;;;;;0.20;0.20;;;;;;;-4.11;84.25;98303.75;5004601;28;20125;-58
2024/01/21 06:06:06;;;;;;;0.10;0.10;;;;;;;-4.28;84.35;98305.63;5004216;28;20133;-57
2024/01/21 06:08:33;;;;;;;0.10;0.10;;;;;;;-4.11;85.72;98303.75;5005351;28;20440;-57
2024/01/21 06:11:00;;;;;;;0.10;0.10;;;;;;;-4.14;86.72;98313.16;5005878;28;20516;-57
2024/01/21 06:13:26;;;;;;;0.10;0.10;;;;;;;-3.93;87.81;98317.00;5005589;28;20046;-58
2024/01/21 06:15:54;;;;;;;0.17;0.17;;;;;;;-3.83;87.61;98317.16;5005849;28;20424;-57
2024/01/21 06:18:21;;;;;;;0.15;0.15;;;;;;;-3.81;88.29;98321.25;5005846;28;20054;-57
2024/01/21 06:20:48;;;;;;;0.20;0.20;;;;;;;-3.58;87.73;98320.25;5005327;28;20057;-57
2024/01/21 06:23:15;;;;;;;0.20;0.20;;;;;;;-3.48;86.61;98314.97;5003780;28;20054;-57
2024/01/21 06:25:42;;;;;;;0.10;0.10;;;;;;;-3.42;86.77;98276.06;5005125;28;20149;-56
2024/01/21 06:28:08;;;;;;;0.10;0.10;;;;;;;-3.68;86.18;98266.78;5005259;28;20061;-58
2024/01/21 06:30:35;;;;;;;0.20;0.20;;;;;;;-3.37;85.98;98316.75;5005429;28;20081;-58
2024/01/21 06:33:02;;;;;;;0.10;0.10;;;;;;;-3.03;86.52;98318.28;5005525;28;20486;-58
2024/01/21 06:35:29;;;;;;;0.10;0.10;;;;;;;-3.65;85.53;98200.50;5003487;28;20614;-57
2024/01/21 06:37:57;;;;;;;0.20;0.20;;;;;;;-4.08;82.95;98149.06;5004283;28;20087;-58
2024/01/21 06:40:23;;;;;;;0.20;0.20;;;;;;;-2.87;82.06;98301.13;5005364;28;20433;-57
2024/01/21 06:42:50;;;;;;;0.20;0.20;;;;;;;-2.73;81.51;98323.22;5004929;28;20116;-57
2024/01/21 06:45:18;;;;;;;0.17;0.17;;;;;;;-2.71;82.84;98321.91;5005019;28;20140;-57
2024/01/21 06:47:45;;;;;;;0.20;0.20;;;;;;;-2.62;82.87;98325.81;5004948;28;20105;-57
2024/01/21 06:50:12;;;;;;;0.20;0.20;;;;;;;-2.90;81.03;98252.84;5004724;28;20509;-58
2024/01/21 06:52:39;;;;;;;0.20;0.20;;;;;;;-2.82;80.15;98265.94;5004837;28;20050;-56
2024/01/21 06:55:06;;;;;;;0.15;0.15;;;;;;;-2.24;78.80;98350.06;5004905;28;20216;-58
2024/01/21 06:57:33;;;;;;;0.20;0.20;;;;;;;-2.13;78.91;98340.13;5003298;28;20061;-59
2024/01/21 07:00:03;;;;;;;0.10;0.10;;;;;;;-2.14;76.85;98339.31;5004468;28;20069;-59
2024/01/21 07:02:30;;;;;;;0.20;0.20;;;;;;;-2.07;77.27;98339.13;5004037;28;20441;-57
2024/01/21 07:04:57;;;;;;;0.20;0.20;;;;;;;-2.23;76.97;98324.56;5003229;28;20072;-58
2024/01/21 07:07:24;;;;;;;0.10;0.10;;;;;;;-2.18;77.60;98337.38;5003092;28;20055;-58
2024/01/21 07:09:51;;;;;;;0.20;0.20;;;;;;;-2.28;77.04;98343.53;5004273;28;20815;-58
2024/01/21 07:12:18;;;;;;;0.20;0.20;;;;;;;-2.26;76.65;98335.94;5002444;28;20436;-57
2024/01/21 07:14:44;;;;;;;0.20;0.20;;;;;;;-2.88;77.45;98272.41;5004079;28;20173;-58
2024/01/21 07:17:11;;;;;;;0.20;0.20;;;;;;;-2.72;78.62;98308.63;5003506;28;20045;-59
2024/01/21 07:19:38;;;;;;;0.20;0.20;;;;;;;-2.07;78.08;98348.06;5003823;28;20317;-58
2024/01/21 07:22:05;;;;;;;0.20;0.20;;;;;;;-1.93;77.46;98340.31;5003820;28;20054;-57
2024/01/21 07:24:32;;;;;;;0.20;0.20;;;;;;;-2.07;77.44;98334.47;5003192;28;20124;-58
2024/01/21 07:27:01;;;;;;;0.20;0.20;;;;;;;-2.37;76.25;98307.06;5004137;28;20508;-57
2024/01/21 07:29:27;;;;;;;0.20;0.20;;;;;;;-2.13;76.42;98273.09;5002848;28;20421;-57
2024/01/21 07:31:54;;;;;;;0.20;0.20;;;;;;;-1.61;75.00;98335.66;5004012;28;20061;-57
2024/01/21 07:34:22;;;;;;;0.20;0.20;;;;;;;-1.40;74.59;98333.91;5004004;28;20136;-59
2024/01/21 07:36:49;;;;;;;0.20;0.20;;;;;;;-1.29;74.55;98324.72;5004127;28;20128;-60
2024/01/21 07:39:16;;;;;;;0.20;0.20;;;;;;;-1.31;74.07;98297.00;5004219;28;20652;-57
2024/01/21 07:41:43;;;;;;;0.20;0.20;;;;;;;-1.16;74.67;98269.91;5002499;28;20069;-58
2024/01/21 07:44:10;;;;;;;0.20;0.20;;;;;;;-0.46;74.09;98346.31;5003989;28;20576;-58
2024/01/21 07:46:37;;;;;;;0.20;0.20;;;;;;;-0.63;73.36;98285.84;5002650;28;20056;-57
2024/01/21 07:49:03;;;;;;;0.20;0.20;;;;;;;-0.24;74.29;98338.75;5003767;28;20054;-59
2024/01/21 07:51:30;;;;;;;0.20;0.20;;;;;;;-0.44;73.36;98268.75;5003756;28;20140;-58
2024/01/21 07:53:57;;;;;;;0.20;0.20;;;;;;;-0.10;72.64;98290.84;5020798;28;20057;-59
2024/01/21 07:56:24;;;;;;;0.20;0.20;;;;;;;0.03;72.87;98291.09;5023790;28;20049;-61
2024/01/21 07:58:51;;;;;;;0.20;0.20;;;;;;;0.39;71.01;98343.69;5023750;28;20060;-59
2024/01/21 08:01:21;;;;;;;0.20;0.20;;;;;;;0.66;72.26;98349.66;5023639;28;20041;-58
2024/01/21 08:03:48;;;;;;;0.20;0.20;;;;;;;0.98;70.43;98352.06;5024048;28;20054;-58
2024/01/21 08:06:17;;;;;;;0.20;0.20;;;;;;;1.07;70.99;98348.47;5019062;28;20088;-58
2024/01/21 08:08:44;;;;;;;0.20;0.20;;;;;;;1.32;70.03;98344.84;5032531;28;20064;-58
2024/01/21 08:11:11;;;;;;;0.20;0.20;;;;;;;1.47;69.85;98351.03;5023843;28;20064;-58
2024/01/21 08:13:38;;;;;;;0.20;0.20;;;;;;;1.58;68.57;98351.00;5023901;28;20053;-59
2024/01/21 08:16:05;;;;;;;0.20;0.20;;;;;;;1.27;69.18;98307.47;5022430;28;20054;-58
2024/01/21 08:18:32;;;;;;;0.20;0.20;;;;;;;-0.19;68.73;98020.22;5023334;28;20056;-60
2024/01/21 08:21:03;;;;;;;0.20;0.20;;;;;;;1.83;68.18;98351.69;5026645;28;20504;-58
2024/01/21 08:23:30;;;;;;;0.20;0.20;;;;;;;1.91;67.57;98353.81;5027551;28;20056;-60
2024/01/21 08:25:57;;;;;;;0.20;0.20;;;;;;;1.20;66.29;98222.34;5025666;28;20053;-59
2024/01/21 08:28:23;;;;;;;0.20;0.20;;;;;;;2.13;66.75;98347.94;5027266;28;20045;-58
2024/01/21 08:30:50;;;;;;;0.30;0.30;;;;;;;2.28;66.04;98353.28;5027515;28;20041;-59
2024/01/21 08:33:19;;;;;;;0.20;0.20;;;;;;;2.23;67.00;98356.06;5027069;28;20504;-59
2024/01/21 08:35:46;;;;;;;0.20;0.20;;;;;;;2.62;65.70;98351.34;5027430;28;20452;-59
2024/01/21 08:38:13;;;;;;;0.20;0.20;;;;;;;2.40;65.77;98338.13;5025821;28;20053;-59
2024/01/21 08:40:40;;;;;;;0.20;0.20;;;;;;;2.49;66.06;98343.81;5027203;28;20049;-59
2024/01/21 08:43:07;;;;;;;0.20;0.20;;;;;;;2.40;65.73;98348.28;5026995;28;20057;-57
2024/01/21 08:45:33;;;;;;;0.20;0.20;;;;;;;2.55;66.52;98368.09;5027090;28;20053;-57
2024/01/21 08:48:00;;;;;;;0.20;0.20;;;;;;;2.51;66.79;98371.69;5027475;28;20056;-61
2024/01/21 08:50:27;;;;;;;0.30;0.30;;;;;;;2.51;67.67;98377.16;5026763;28;20061;-59
2024/01/21 08:52:54;;;;;;;0.20;0.20;;;;;;;2.51;66.81;98371.69;5022033;28;20048;-59
2024/01/21 08:55:20;;;;;;;0.20;0.20;;;;;;;2.44;67.33;98365.72;5007163;28;20057;-61
2024/01/21 08:57:47;;;;;;;0.20;0.20;;;;;;;2.32;67.22;98389.88;5007182;28;20440;-58
2024/01/21 09:00:15;;;;;;;0.20;0.20;;;;;;;1.92;66.35;98317.19;5006868;28;20054;-57
2024/01/21 09:02:41;;;;;;;0.20;0.20;;;;;;;2.07;66.90;98362.72;5006805;28;20058;-57
2024/01/21 09:05:08;;;;;;;0.22;0.22;;;;;;;0.26;67.64;97992.78;4832534;28;5001700;-58
2024/01/21 09:07:35;;;;;;;0.20;0.20;;;;;;;2.58;70.06;98317.47;5006140;28;20058;-58
2024/01/21 09:10:04;;;;;;;0.30;0.30;;;;;;;2.73;68.07;98322.81;5005466;28;20048;-58
2024/01/21 09:12:31;;;;;;;0.25;0.25;;;;;;;2.16;65.94;98188.84;5004995;28;20529;-58
2024/01/21 09:14:58;;;;;;;0.20;0.20;;;;;;;3.15;67.53;98301.00;5006628;28;20053;-58
2024/01/21 09:17:25;;;;;;;0.20;0.20;;;;;;;3.50;64.30;98360.81;5005096;28;20061;-58
2024/01/21 09:19:52;;;;;;;0.30;0.30;;;;;;;3.52;66.44;98328.47;5005266;28;20472;-60
2024/01/21 09:22:19;;;;;;;0.30;0.30;;;;;;;3.74;61.96;98347.91;5005555;28;20541;-57
2024/01/21 09:24:47;;;;;;;0.20;0.20;;;;;;;3.35;62.36;98311.69;5006609;28;20318;-57
2024/01/21 09:27:15;;;;;;;0.20;0.20;;;;;;;3.17;62.23;98303.44;5006400;28;20053;-59
2024/01/21 09:29:43;;;;;;;0.20;0.20;;;;;;;3.30;63.06;98350.09;5006609;28;20054;-58
2024/01/21 09:32:13;;;;;;;0.20;0.20;;;;;;;3.33;64.27;98352.25;5004412;28;20081;-56
2024/01/21 09:34:40;;;;;;;0.25;0.25;;;;;;;2.98;64.28;98300.66;5005175;28;20426;-57
2024/01/21 09:37:07;;;;;;;0.30;0.30;;;;;;;2.58;64.12;98263.59;5006353;28;20594;-58
2024/01/21 09:39:33;;;;;;;0.28;0.28;;;;;;;2.98;65.34;98339.78;5006171;28;20057;-58
2024/01/21 09:42:05;;;;;;;0.20;0.20;;;;;;;3.03;64.83;98341.66;5005074;28;20038;-58
2024/01/21 09:44:32;;;;;;;0.20;0.20;;;;;;;3.21;65.46;98342.81;5004611;28;20042;-57
2024/01/21 09:47:01;;;;;;;0.22;0.22;;;;;;;3.30;65.97;98330.94;5004393;28;20057;-56
2024/01/21 09:49:31;;;;;;;0.20;0.20;;;;;;;3.41;65.96;98332.44;5004458;28;20100;-60
2024/01/21 09:51:59;;;;;;;0.20;0.20;;;;;;;3.69;65.27;98334.25;5005976;28;20406;-56
2024/01/21 09:54:26;;;;;;;0.20;0.20;;;;;;;3.86;63.37;98326.34;5004516;28;20045;-57
2024/01/21 09:56:53;;;;;;;0.20;0.20;;;;;;;3.86;64.22;98317.31;5005852;28;20136;-57
2024/01/21 09:59:19;;;;;;;0.30;0.30;;;;;;;3.93;62.74;98329.53;5005949;28;20046;-57
2024/01/21 10:01:47;;;;;;;0.20;0.20;;;;;;;3.97;62.98;98325.09;5005391;28;20080;-57
2024/01/21 10:04:14;;;;;;;0.30;0.30;;;;;;;4.14;63.62;98341.81;5004089;28;20140;-57
2024/01/21 10:06:42;;;;;;;0.20;0.20;;;;;;;3.95;62.22;98310.84;5004973;28;20054;-58
2024/01/21 10:09:16;;;;;;;0.22;0.22;;;;;;;3.85;62.36;98313.75;5005259;28;20191;-57
2024/01/21 10:11:54;;;;;;;0.20;0.20;;;;;;;3.84;62.60;98325.81;5005518;28;20046;-58
2024/01/21 10:14:21;;;;;;;0.30;0.30;;;;;;;3.41;63.38;98283.16;5005769;28;20049;-58
2024/01/21 10:16:49;;;;;;;0.30;0.30;;;;;;;3.86;64.16;98304.41;5005004;28;20050;-57
2024/01/21 10:19:26;;;;;;;0.20;0.20;;;;;;;4.14;63.70;98314.41;5005632;28;20056;-58
2024/01/21 10:22:16;;;;;;;0.30;0.30;;;;;;;4.14;64.02;98319.88;5004186;28;20049;-57
2024/01/21 10:24:46;;;;;;;0.25;0.25;;;;;;;4.34;63.73;98314.09;5005150;28;20050;-59
2024/01/21 10:27:15;;;;;;;0.30;0.30;;;;;;;4.25;62.58;98239.09;5005532;28;20411;-58
2024/01/21 10:29:44;;;;;;;0.30;0.30;;;;;;;4.48;62.77;98306.72;5005464;28;20056;-58
2024/01/21 10:32:14;;;;;;;0.30;0.30;;;;;;;4.11;61.79;98232.75;5004579;28;20064;-61
2024/01/21 10:34:49;;;;;;;0.30;0.30;;;;;;;4.55;60.35;98298.91;5004981;28;20078;-61
2024/01/21 10:37:17;;;;;;;0.30;0.30;;;;;;;4.59;59.86;98294.47;5005404;28;20141;-58
2024/01/21 10:39:48;;;;;;;0.30;0.30;;;;;;;4.61;61.30;98297.72;5005252;28;20049;-58
2024/01/21 10:42:15;;;;;;;0.30;0.30;;;;;;;4.55;60.84;98276.97;5003173;28;20804;-58
2024/01/21 10:44:44;;;;;;;0.30;0.30;;;;;;;4.56;60.70;98311.53;5003019;28;20050;-60
2024/01/21 10:47:13;;;;;;;0.30;0.30;;;;;;;4.57;61.94;98293.13;5004959;28;20053;-57
2024/01/21 10:49:40;;;;;;;0.30;0.30;;;;;;;4.49;60.55;98275.44;5003425;28;20134;-60
2024/01/21 10:52:11;;;;;;;0.25;0.25;;;;;;;4.51;61.19;98281.44;5004408;28;20061;-60
2024/01/21 10:54:39;;;;;;;0.25;0.25;;;;;;;4.85;60.27;98291.25;5024814;28;20062;-57
2024/01/21 10:57:06;;;;;;;0.30;0.30;;;;;;;4.87;60.58;98273.34;5024932;28;20140;-57
2024/01/21 10:59:38;;;;;;;0.30;0.30;;;;;;;4.28;59.73;98194.59;5023326;28;20085;-56
2024/01/21 11:02:07;;;;;;;0.30;0.30;;;;;;;4.86;60.28;98265.41;5023385;28;20053;-58
2024/01/21 11:04:34;;;;;;;0.30;0.30;;;;;;;4.68;58.63;98240.50;5024757;28;20049;-58
2024/01/21 11:07:05;;;;;;;0.30;0.30;;;;;;;4.68;58.87;98291.03;5024341;28;20519;-59
2024/01/21 11:09:34;;;;;;;0.30;0.30;;;;;;;4.69;58.72;98282.50;5024053;28;20064;-60
2024/01/21 11:12:03;;;;;;;0.20;0.20;;;;;;;4.71;60.17;98279.44;5024368;28;20053;-59
2024/01/21 11:14:37;;;;;;;0.30;0.30;;;;;;;4.73;60.48;98285.47;5024003;28;20053;-58
2024/01/21 11:17:07;;;;;;;0.30;0.30;;;;;;;4.79;60.35;98284.25;5024092;28;20512;-58
2024/01/21 11:19:44;;;;;;;0.20;0.20;;;;;;;4.65;59.56;98276.78;5024286;28;20053;-58
2024/01/21 11:22:14;;;;;;;0.30;0.30;;;;;;;4.69;59.19;98266.81;5014151;28;20045;-57
2024/01/21 11:24:45;;;;;;;0.30;0.30;;;;;;;4.65;59.51;98259.50;5004349;28;20175;-58
2024/01/21 11:27:29;;;;;;;0.30;0.30;;;;;;;4.71;59.67;98262.97;5004228;28;20049;-58
2024/01/21 11:30:01;;;;;;;0.30;0.30;;;;;;;4.63;60.36;98262.53;5004322;28;20069;-58
2024/01/21 11:32:30;;;;;;;0.30;0.30;;;;;;;4.68;61.39;98256.97;5004076;28;20056;-60
2024/01/21 11:35:13;;;;;;;0.30;0.30;;;;;;;4.74;61.01;98252.22;5004532;28;20046;-57
2024/01/21 11:37:41;;;;;;;0.30;0.30;;;;;;;4.73;60.85;98238.81;5004025;28;20058;-61